sensor_id;sensor_type;location;lat;lon;timestamp;P1;durP1;ratioP1;P2;durP2;ratioP2
45806;SDS011;31507;51.494;7.518;2023-01-19T00:02:13;15.45;;;9.95;;
45806;SDS011;31507;51.494;7.518;2023-01-19T00:04:38;14.93;;;9.13;;
45806;SDS011;31507;51.494;7.518;2023-01-19T00:07:04;16.27;;;9.20;;
45806;SDS011;31507;51.494;7.518;2023-01-19T00:09:31;15.05;;;8.88;;
45806;SDS011;31507;51.494;7.518;2023-01-19T00:11:57;13.27;;;9.23;;
45806;SDS011;31507;51.494;7.518;2023-01-19T00:14:23;11.13;;;8.93;;
45806;SDS011;31507;51.494;7.518;2023-01-19T00:16:49;15.27;;;9.38;;
45806;SDS011;31507;51.494;7.518;2023-01-19T00:19:14;14.40;;;9.25;;
45806;SDS011;31507;51.494;7.518;2023-01-19T00:21:41;14.15;;;9.27;;
45806;SDS011;31507;51.494;7.518;2023-01-19T00:24:06;13.27;;;9.02;;
45806;SDS011;31507;51.494;7.518;2023-01-19T00:26:32;12.82;;;8.88;;
45806;SDS011;31507;51.494;7.518;2023-01-19T00:28:58;13.90;;;9.18;;
45806;SDS011;31507;51.494;7.518;2023-01-19T00:31:23;12.93;;;8.65;;
45806;SDS011;31507;51.494;7.518;2023-01-19T00:33:49;13.90;;;9.15;;
45806;SDS011;31507;51.494;7.518;2023-01-19T00:36:16;13.07;;;8.80;;
45806;SDS011;31507;51.494;7.518;2023-01-19T00:38:42;18.60;;;9.55;;
45806;SDS011;31507;51.494;7.518;2023-01-19T00:41:07;13.23;;;8.90;;
45806;SDS011;31507;51.494;7.518;2023-01-19T00:43:33;18.42;;;9.63;;
45806;SDS011;31507;51.494;7.518;2023-01-19T00:45:59;13.25;;;9.25;;
45806;SDS011;31507;51.494;7.518;2023-01-19T00:48:24;17.33;;;8.82;;
45806;SDS011;31507;51.494;7.518;2023-01-19T00:50:50;13.40;;;8.75;;
45806;SDS011;31507;51.494;7.518;2023-01-19T00:53:15;18.58;;;9.77;;
45806;SDS011;31507;51.494;7.518;2023-01-19T00:55:41;10.98;;;8.40;;
45806;SDS011;31507;51.494;7.518;2023-01-19T00:58:06;15.70;;;9.57;;
45806;SDS011;31507;51.494;7.518;2023-01-19T01:00:32;16.33;;;9.95;;
45806;SDS011;31507;51.494;7.518;2023-01-19T01:02:58;16.50;;;8.73;;
45806;SDS011;31507;51.494;7.518;2023-01-19T01:05:23;14.43;;;9.40;;
45806;SDS011;31507;51.494;7.518;2023-01-19T01:07:49;15.07;;;9.55;;
45806;SDS011;31507;51.494;7.518;2023-01-19T01:10:16;13.60;;;9.35;;
45806;SDS011;31507;51.494;7.518;2023-01-19T01:12:50;11.75;;;9.05;;
45806;SDS011;31507;51.494;7.518;2023-01-19T01:15:16;13.13;;;10.23;;
45806;SDS011;31507;51.494;7.518;2023-01-19T01:17:43;18.45;;;10.95;;
45806;SDS011;31507;51.494;7.518;2023-01-19T01:20:15;17.15;;;8.90;;
45806;SDS011;31507;51.494;7.518;2023-01-19T01:22:42;16.60;;;9.80;;
45806;SDS011;31507;51.494;7.518;2023-01-19T01:25:16;16.75;;;11.02;;
45806;SDS011;31507;51.494;7.518;2023-01-19T01:27:43;17.88;;;9.57;;
45806;SDS011;31507;51.494;7.518;2023-01-19T01:30:10;13.38;;;7.72;;
45806;SDS011;31507;51.494;7.518;2023-01-19T01:32:37;14.45;;;9.73;;
45806;SDS011;31507;51.494;7.518;2023-01-19T01:35:03;15.65;;;9.73;;
45806;SDS011;31507;51.494;7.518;2023-01-19T01:37:29;14.20;;;9.40;;
45806;SDS011;31507;51.494;7.518;2023-01-19T01:39:55;18.08;;;10.18;;
45806;SDS011;31507;51.494;7.518;2023-01-19T01:42:24;12.95;;;9.43;;
45806;SDS011;31507;51.494;7.518;2023-01-19T01:44:53;12.13;;;8.45;;
45806;SDS011;31507;51.494;7.518;2023-01-19T01:49:57;16.45;;;8.95;;
45806;SDS011;31507;51.494;7.518;2023-01-19T01:52:24;16.85;;;9.10;;
45806;SDS011;31507;51.494;7.518;2023-01-19T01:54:52;15.32;;;9.25;;
45806;SDS011;31507;51.494;7.518;2023-01-19T01:57:19;16.27;;;8.48;;
45806;SDS011;31507;51.494;7.518;2023-01-19T01:59:45;16.08;;;8.48;;
45806;SDS011;31507;51.494;7.518;2023-01-19T02:02:15;18.17;;;9.05;;
45806;SDS011;31507;51.494;7.518;2023-01-19T02:05:04;14.57;;;8.82;;
45806;SDS011;31507;51.494;7.518;2023-01-19T02:10:29;15.95;;;9.35;;
45806;SDS011;31507;51.494;7.518;2023-01-19T02:13:14;15.07;;;9.35;;
45806;SDS011;31507;51.494;7.518;2023-01-19T02:15:50;18.27;;;10.18;;
45806;SDS011;31507;51.494;7.518;2023-01-19T02:18:18;14.93;;;9.35;;
45806;SDS011;31507;51.494;7.518;2023-01-19T02:26:24;18.85;;;10.60;;
45806;SDS011;31507;51.494;7.518;2023-01-19T02:28:51;18.85;;;10.95;;
45806;SDS011;31507;51.494;7.518;2023-01-19T02:31:23;16.88;;;10.43;;
45806;SDS011;31507;51.494;7.518;2023-01-19T02:33:49;13.50;;;8.85;;
45806;SDS011;31507;51.494;7.518;2023-01-19T02:36:15;12.70;;;9.05;;
45806;SDS011;31507;51.494;7.518;2023-01-19T02:38:45;18.27;;;9.15;;
45806;SDS011;31507;51.494;7.518;2023-01-19T02:41:14;12.05;;;8.95;;
45806;SDS011;31507;51.494;7.518;2023-01-19T02:43:44;14.20;;;9.02;;
45806;SDS011;31507;51.494;7.518;2023-01-19T02:46:12;12.32;;;8.13;;
45806;SDS011;31507;51.494;7.518;2023-01-19T02:48:39;16.30;;;9.43;;
45806;SDS011;31507;51.494;7.518;2023-01-19T02:51:24;16.45;;;9.02;;
45806;SDS011;31507;51.494;7.518;2023-01-19T03:02:02;10.48;;;7.93;;
45806;SDS011;31507;51.494;7.518;2023-01-19T03:10:12;12.43;;;7.63;;
45806;SDS011;31507;51.494;7.518;2023-01-19T03:12:56;12.18;;;8.23;;
45806;SDS011;31507;51.494;7.518;2023-01-19T03:15:58;13.70;;;8.02;;
45806;SDS011;31507;51.494;7.518;2023-01-19T03:18:26;18.15;;;8.23;;
45806;SDS011;31507;51.494;7.518;2023-01-19T03:20:56;9.63;;;6.35;;
45806;SDS011;31507;51.494;7.518;2023-01-19T03:23:26;12.52;;;8.65;;
45806;SDS011;31507;51.494;7.518;2023-01-19T03:25:55;14.90;;;8.15;;
45806;SDS011;31507;51.494;7.518;2023-01-19T03:28:23;11.98;;;7.65;;
45806;SDS011;31507;51.494;7.518;2023-01-19T03:30:52;14.60;;;8.25;;
45806;SDS011;31507;51.494;7.518;2023-01-19T03:33:23;13.95;;;7.80;;
45806;SDS011;31507;51.494;7.518;2023-01-19T03:35:58;10.05;;;7.28;;
45806;SDS011;31507;51.494;7.518;2023-01-19T03:38:33;13.07;;;7.18;;
45806;SDS011;31507;51.494;7.518;2023-01-19T03:41:03;13.05;;;7.70;;
45806;SDS011;31507;51.494;7.518;2023-01-19T03:43:32;11.23;;;7.53;;
45806;SDS011;31507;51.494;7.518;2023-01-19T03:46:00;16.98;;;7.40;;
45806;SDS011;31507;51.494;7.518;2023-01-19T03:48:28;14.05;;;7.38;;
45806;SDS011;31507;51.494;7.518;2023-01-19T03:50:54;11.55;;;7.55;;
45806;SDS011;31507;51.494;7.518;2023-01-19T03:53:20;14.10;;;6.93;;
45806;SDS011;31507;51.494;7.518;2023-01-19T03:55:49;14.38;;;7.13;;
45806;SDS011;31507;51.494;7.518;2023-01-19T03:58:15;10.02;;;7.10;;
45806;SDS011;31507;51.494;7.518;2023-01-19T04:00:41;13.32;;;6.97;;
45806;SDS011;31507;51.494;7.518;2023-01-19T04:03:15;10.85;;;6.82;;
45806;SDS011;31507;51.494;7.518;2023-01-19T04:05:41;10.85;;;6.70;;
45806;SDS011;31507;51.494;7.518;2023-01-19T04:08:07;14.02;;;6.85;;
45806;SDS011;31507;51.494;7.518;2023-01-19T04:10:33;8.80;;;6.13;;
45806;SDS011;31507;51.494;7.518;2023-01-19T04:13:00;10.85;;;7.22;;
45806;SDS011;31507;51.494;7.518;2023-01-19T04:15:26;11.48;;;6.57;;
45806;SDS011;31507;51.494;7.518;2023-01-19T04:17:52;15.73;;;7.10;;
45806;SDS011;31507;51.494;7.518;2023-01-19T04:20:18;13.30;;;6.82;;
45806;SDS011;31507;51.494;7.518;2023-01-19T04:22:45;15.82;;;7.60;;
45806;SDS011;31507;51.494;7.518;2023-01-19T04:25:11;11.65;;;6.63;;
45806;SDS011;31507;51.494;7.518;2023-01-19T04:27:37;10.65;;;6.72;;
45806;SDS011;31507;51.494;7.518;2023-01-19T04:30:03;14.57;;;7.07;;
45806;SDS011;31507;51.494;7.518;2023-01-19T04:32:29;12.63;;;6.97;;
45806;SDS011;31507;51.494;7.518;2023-01-19T04:34:56;7.82;;;6.15;;
45806;SDS011;31507;51.494;7.518;2023-01-19T04:37:22;14.98;;;7.30;;
45806;SDS011;31507;51.494;7.518;2023-01-19T04:39:48;13.95;;;7.10;;
45806;SDS011;31507;51.494;7.518;2023-01-19T04:42:14;17.50;;;8.27;;
45806;SDS011;31507;51.494;7.518;2023-01-19T04:44:40;10.77;;;7.18;;
45806;SDS011;31507;51.494;7.518;2023-01-19T04:47:06;10.65;;;6.25;;
45806;SDS011;31507;51.494;7.518;2023-01-19T04:49:32;10.38;;;7.35;;
45806;SDS011;31507;51.494;7.518;2023-01-19T04:51:58;13.25;;;7.63;;
45806;SDS011;31507;51.494;7.518;2023-01-19T04:54:23;10.02;;;6.85;;
45806;SDS011;31507;51.494;7.518;2023-01-19T04:56:49;13.23;;;7.00;;
45806;SDS011;31507;51.494;7.518;2023-01-19T04:59:15;13.18;;;7.28;;
45806;SDS011;31507;51.494;7.518;2023-01-19T05:01:40;12.93;;;7.78;;
45806;SDS011;31507;51.494;7.518;2023-01-19T05:04:06;14.30;;;8.40;;
45806;SDS011;31507;51.494;7.518;2023-01-19T05:06:32;15.82;;;8.43;;
45806;SDS011;31507;51.494;7.518;2023-01-19T05:08:58;14.82;;;9.38;;
45806;SDS011;31507;51.494;7.518;2023-01-19T05:11:24;16.70;;;9.30;;
45806;SDS011;31507;51.494;7.518;2023-01-19T05:13:50;23.58;;;9.52;;
45806;SDS011;31507;51.494;7.518;2023-01-19T05:16:16;18.77;;;9.63;;
45806;SDS011;31507;51.494;7.518;2023-01-19T05:18:41;14.45;;;10.57;;
45806;SDS011;31507;51.494;7.518;2023-01-19T05:21:07;17.25;;;10.60;;
45806;SDS011;31507;51.494;7.518;2023-01-19T05:23:33;22.70;;;11.60;;
45806;SDS011;31507;51.494;7.518;2023-01-19T05:25:59;16.75;;;11.38;;
45806;SDS011;31507;51.494;7.518;2023-01-19T05:28:29;17.23;;;11.90;;
45806;SDS011;31507;51.494;7.518;2023-01-19T05:30:56;19.80;;;12.90;;
45806;SDS011;31507;51.494;7.518;2023-01-19T05:33:22;17.80;;;12.02;;
45806;SDS011;31507;51.494;7.518;2023-01-19T05:35:51;19.38;;;11.93;;
45806;SDS011;31507;51.494;7.518;2023-01-19T05:38:17;17.70;;;12.13;;
45806;SDS011;31507;51.494;7.518;2023-01-19T05:40:43;21.95;;;10.35;;
45806;SDS011;31507;51.494;7.518;2023-01-19T05:43:09;21.20;;;10.90;;
45806;SDS011;31507;51.494;7.518;2023-01-19T05:45:35;19.42;;;13.15;;
45806;SDS011;31507;51.494;7.518;2023-01-19T05:48:05;20.58;;;12.13;;
45806;SDS011;31507;51.494;7.518;2023-01-19T05:50:31;26.65;;;15.15;;
45806;SDS011;31507;51.494;7.518;2023-01-19T05:52:58;25.55;;;13.05;;
45806;SDS011;31507;51.494;7.518;2023-01-19T05:55:24;20.65;;;12.60;;
45806;SDS011;31507;51.494;7.518;2023-01-19T05:57:50;20.75;;;12.52;;
45806;SDS011;31507;51.494;7.518;2023-01-19T06:00:16;21.65;;;12.93;;
45806;SDS011;31507;51.494;7.518;2023-01-19T06:02:42;16.02;;;10.35;;
45806;SDS011;31507;51.494;7.518;2023-01-19T06:05:08;22.15;;;11.82;;
45806;SDS011;31507;51.494;7.518;2023-01-19T06:07:34;17.25;;;12.35;;
45806;SDS011;31507;51.494;7.518;2023-01-19T06:10:00;24.33;;;14.18;;
45806;SDS011;31507;51.494;7.518;2023-01-19T06:12:25;18.27;;;12.02;;
45806;SDS011;31507;51.494;7.518;2023-01-19T06:14:51;21.92;;;13.82;;
45806;SDS011;31507;51.494;7.518;2023-01-19T06:17:17;21.00;;;13.05;;
45806;SDS011;31507;51.494;7.518;2023-01-19T06:19:43;22.92;;;14.77;;
45806;SDS011;31507;51.494;7.518;2023-01-19T06:22:08;27.27;;;12.80;;
45806;SDS011;31507;51.494;7.518;2023-01-19T06:24:34;22.67;;;12.48;;
45806;SDS011;31507;51.494;7.518;2023-01-19T06:26:59;22.30;;;12.70;;
45806;SDS011;31507;51.494;7.518;2023-01-19T06:29:26;21.83;;;13.43;;
45806;SDS011;31507;51.494;7.518;2023-01-19T06:31:52;17.63;;;12.60;;
45806;SDS011;31507;51.494;7.518;2023-01-19T06:34:17;18.80;;;11.23;;
45806;SDS011;31507;51.494;7.518;2023-01-19T06:36:44;20.73;;;11.15;;
45806;SDS011;31507;51.494;7.518;2023-01-19T06:39:10;13.75;;;10.05;;
45806;SDS011;31507;51.494;7.518;2023-01-19T06:41:36;17.25;;;11.82;;
45806;SDS011;31507;51.494;7.518;2023-01-19T06:44:02;16.35;;;10.18;;
45806;SDS011;31507;51.494;7.518;2023-01-19T06:46:28;14.27;;;9.45;;
45806;SDS011;31507;51.494;7.518;2023-01-19T06:48:54;14.00;;;8.50;;
45806;SDS011;31507;51.494;7.518;2023-01-19T06:51:20;13.05;;;8.70;;
45806;SDS011;31507;51.494;7.518;2023-01-19T06:53:46;14.18;;;9.13;;
45806;SDS011;31507;51.494;7.518;2023-01-19T06:56:12;15.70;;;8.48;;
45806;SDS011;31507;51.494;7.518;2023-01-19T06:58:38;12.82;;;8.95;;
45806;SDS011;31507;51.494;7.518;2023-01-19T07:01:04;13.10;;;7.28;;
45806;SDS011;31507;51.494;7.518;2023-01-19T07:03:31;15.43;;;9.80;;
45806;SDS011;31507;51.494;7.518;2023-01-19T07:05:58;17.10;;;9.18;;
45806;SDS011;31507;51.494;7.518;2023-01-19T07:08:26;18.58;;;9.10;;
45806;SDS011;31507;51.494;7.518;2023-01-19T07:10:57;12.98;;;9.10;;
45806;SDS011;31507;51.494;7.518;2023-01-19T07:13:28;12.00;;;8.10;;
45806;SDS011;31507;51.494;7.518;2023-01-19T07:15:54;12.68;;;9.35;;
45806;SDS011;31507;51.494;7.518;2023-01-19T07:18:20;12.60;;;8.38;;
45806;SDS011;31507;51.494;7.518;2023-01-19T07:20:45;15.18;;;8.43;;
45806;SDS011;31507;51.494;7.518;2023-01-19T07:23:13;12.88;;;8.05;;
45806;SDS011;31507;51.494;7.518;2023-01-19T07:25:39;12.10;;;8.57;;
45806;SDS011;31507;51.494;7.518;2023-01-19T07:28:05;10.35;;;7.38;;
45806;SDS011;31507;51.494;7.518;2023-01-19T07:30:31;10.48;;;7.35;;
45806;SDS011;31507;51.494;7.518;2023-01-19T07:32:57;16.65;;;9.50;;
45806;SDS011;31507;51.494;7.518;2023-01-19T07:35:23;11.07;;;6.35;;
45806;SDS011;31507;51.494;7.518;2023-01-19T07:37:49;12.20;;;6.90;;
45806;SDS011;31507;51.494;7.518;2023-01-19T07:40:15;12.85;;;6.00;;
45806;SDS011;31507;51.494;7.518;2023-01-19T07:42:45;9.15;;;6.25;;
45806;SDS011;31507;51.494;7.518;2023-01-19T07:45:15;10.73;;;6.07;;
45806;SDS011;31507;51.494;7.518;2023-01-19T07:47:42;8.90;;;5.70;;
45806;SDS011;31507;51.494;7.518;2023-01-19T07:50:09;0.00;;;0.00;;
45806;SDS011;31507;51.494;7.518;2023-01-19T07:52:35;0.00;;;0.00;;
45806;SDS011;31507;51.494;7.518;2023-01-19T07:55:01;0.00;;;0.00;;
45806;SDS011;31507;51.494;7.518;2023-01-19T07:57:26;0.00;;;0.00;;
45806;SDS011;31507;51.494;7.518;2023-01-19T07:59:52;0.00;;;0.00;;
45806;SDS011;31507;51.494;7.518;2023-01-19T08:02:18;0.00;;;0.00;;
45806;SDS011;31507;51.494;7.518;2023-01-19T08:04:46;0.00;;;0.00;;
45806;SDS011;31507;51.494;7.518;2023-01-19T08:07:12;0.00;;;0.00;;
45806;SDS011;31507;51.494;7.518;2023-01-19T08:09:37;0.00;;;0.00;;
45806;SDS011;31507;51.494;7.518;2023-01-19T08:12:03;0.00;;;0.00;;
45806;SDS011;31507;51.494;7.518;2023-01-19T08:14:29;0.00;;;0.00;;
45806;SDS011;31507;51.494;7.518;2023-01-19T08:16:57;0.00;;;0.00;;
45806;SDS011;31507;51.494;7.518;2023-01-19T08:19:26;0.00;;;0.00;;
45806;SDS011;31507;51.494;7.518;2023-01-19T08:21:52;0.00;;;0.00;;
45806;SDS011;31507;51.494;7.518;2023-01-19T08:24:19;0.00;;;0.00;;
45806;SDS011;31507;51.494;7.518;2023-01-19T08:26:47;0.00;;;0.00;;
45806;SDS011;31507;51.494;7.518;2023-01-19T08:29:12;0.00;;;0.00;;
45806;SDS011;31507;51.494;7.518;2023-01-19T08:31:38;0.00;;;0.00;;
45806;SDS011;31507;51.494;7.518;2023-01-19T08:34:04;0.10;;;0.10;;
45806;SDS011;31507;51.494;7.518;2023-01-19T08:36:29;0.00;;;0.00;;
45806;SDS011;31507;51.494;7.518;2023-01-19T08:38:55;0.00;;;0.00;;
45806;SDS011;31507;51.494;7.518;2023-01-19T08:41:21;0.00;;;0.00;;
45806;SDS011;31507;51.494;7.518;2023-01-19T08:43:47;0.00;;;0.00;;
45806;SDS011;31507;51.494;7.518;2023-01-19T08:46:13;0.00;;;0.00;;
45806;SDS011;31507;51.494;7.518;2023-01-19T08:48:41;0.00;;;0.00;;
45806;SDS011;31507;51.494;7.518;2023-01-19T08:51:09;0.00;;;0.00;;
45806;SDS011;31507;51.494;7.518;2023-01-19T08:53:41;0.00;;;0.00;;
45806;SDS011;31507;51.494;7.518;2023-01-19T08:56:07;0.00;;;0.00;;
45806;SDS011;31507;51.494;7.518;2023-01-19T08:58:37;0.00;;;0.00;;
45806;SDS011;31507;51.494;7.518;2023-01-19T09:01:04;0.00;;;0.00;;
45806;SDS011;31507;51.494;7.518;2023-01-19T09:03:30;0.00;;;0.00;;
45806;SDS011;31507;51.494;7.518;2023-01-19T09:05:56;0.00;;;0.00;;
45806;SDS011;31507;51.494;7.518;2023-01-19T09:08:21;0.00;;;0.00;;
45806;SDS011;31507;51.494;7.518;2023-01-19T09:10:48;0.70;;;0.70;;
45806;SDS011;31507;51.494;7.518;2023-01-19T09:13:14;0.47;;;0.47;;
45806;SDS011;31507;51.494;7.518;2023-01-19T09:15:41;2.17;;;0.80;;
45806;SDS011;31507;51.494;7.518;2023-01-19T09:18:08;0.00;;;0.00;;
45806;SDS011;31507;51.494;7.518;2023-01-19T09:20:39;0.00;;;0.00;;
45806;SDS011;31507;51.494;7.518;2023-01-19T09:23:07;0.00;;;0.00;;
45806;SDS011;31507;51.494;7.518;2023-01-19T09:25:37;0.00;;;0.00;;
45806;SDS011;31507;51.494;7.518;2023-01-19T09:28:04;0.00;;;0.00;;
45806;SDS011;31507;51.494;7.518;2023-01-19T09:30:31;0.00;;;0.00;;
45806;SDS011;31507;51.494;7.518;2023-01-19T09:33:00;0.00;;;0.00;;
45806;SDS011;31507;51.494;7.518;2023-01-19T09:35:35;0.00;;;0.00;;
45806;SDS011;31507;51.494;7.518;2023-01-19T09:38:04;0.13;;;0.13;;
45806;SDS011;31507;51.494;7.518;2023-01-19T09:40:35;0.00;;;0.00;;
45806;SDS011;31507;51.494;7.518;2023-01-19T09:48:25;0.75;;;0.75;;
45806;SDS011;31507;51.494;7.518;2023-01-19T09:51:25;0.00;;;0.00;;
45806;SDS011;31507;51.494;7.518;2023-01-19T09:56:38;0.00;;;0.00;;
45806;SDS011;31507;51.494;7.518;2023-01-19T09:59:18;0.43;;;0.43;;
45806;SDS011;31507;51.494;7.518;2023-01-19T10:04:54;0.00;;;0.00;;
45806;SDS011;31507;51.494;7.518;2023-01-19T10:07:49;0.20;;;0.20;;
45806;SDS011;31507;51.494;7.518;2023-01-19T10:10:35;0.00;;;0.00;;
45806;SDS011;31507;51.494;7.518;2023-01-19T10:21:15;0.40;;;0.40;;
45806;SDS011;31507;51.494;7.518;2023-01-19T10:23:54;0.00;;;0.00;;
45806;SDS011;31507;51.494;7.518;2023-01-19T10:26:39;0.00;;;0.00;;
45806;SDS011;31507;51.494;7.518;2023-01-19T10:32:09;0.00;;;0.00;;
45806;SDS011;31507;51.494;7.518;2023-01-19T10:39:45;0.25;;;0.25;;
45806;SDS011;31507;51.494;7.518;2023-01-19T10:42:19;0.00;;;0.00;;
45806;SDS011;31507;51.494;7.518;2023-01-19T10:44:45;0.10;;;0.10;;
45806;SDS011;31507;51.494;7.518;2023-01-19T10:47:18;0.00;;;0.00;;
45806;SDS011;31507;51.494;7.518;2023-01-19T10:49:45;1.10;;;0.65;;
45806;SDS011;31507;51.494;7.518;2023-01-19T10:54:53;0.00;;;0.00;;
45806;SDS011;31507;51.494;7.518;2023-01-19T10:57:40;0.00;;;0.00;;
45806;SDS011;31507;51.494;7.518;2023-01-19T11:00:52;0.00;;;0.00;;
45806;SDS011;31507;51.494;7.518;2023-01-19T11:02:53;0.00;;;0.00;;
45806;SDS011;31507;51.494;7.518;2023-01-19T11:05:21;0.10;;;0.10;;
45806;SDS011;31507;51.494;7.518;2023-01-19T11:07:49;0.00;;;0.00;;
45806;SDS011;31507;51.494;7.518;2023-01-19T11:13:23;0.47;;;0.47;;
45806;SDS011;31507;51.494;7.518;2023-01-19T11:18:39;0.00;;;0.00;;
45806;SDS011;31507;51.494;7.518;2023-01-19T11:21:10;0.38;;;0.38;;
45806;SDS011;31507;51.494;7.518;2023-01-19T11:23:40;0.00;;;0.00;;
45806;SDS011;31507;51.494;7.518;2023-01-19T11:28:57;0.00;;;0.00;;
45806;SDS011;31507;51.494;7.518;2023-01-19T11:34:03;0.10;;;0.10;;
45806;SDS011;31507;51.494;7.518;2023-01-19T11:36:34;0.38;;;0.30;;
45806;SDS011;31507;51.494;7.518;2023-01-19T11:41:47;0.00;;;0.00;;
45806;SDS011;31507;51.494;7.518;2023-01-19T11:44:20;0.00;;;0.00;;
45806;SDS011;31507;51.494;7.518;2023-01-19T11:46:51;0.10;;;0.10;;
45806;SDS011;31507;51.494;7.518;2023-01-19T11:51:51;0.00;;;0.00;;
45806;SDS011;31507;51.494;7.518;2023-01-19T11:54:40;0.00;;;0.00;;
45806;SDS011;31507;51.494;7.518;2023-01-19T11:57:34;0.08;;;0.08;;
45806;SDS011;31507;51.494;7.518;2023-01-19T12:00:00;0.00;;;0.00;;
45806;SDS011;31507;51.494;7.518;2023-01-19T12:02:30;0.00;;;0.00;;
45806;SDS011;31507;51.494;7.518;2023-01-19T12:05:09;0.10;;;0.10;;
45806;SDS011;31507;51.494;7.518;2023-01-19T12:07:39;0.00;;;0.00;;
45806;SDS011;31507;51.494;7.518;2023-01-19T12:10:27;0.98;;;0.80;;
45806;SDS011;31507;51.494;7.518;2023-01-19T12:12:55;0.65;;;0.65;;
45806;SDS011;31507;51.494;7.518;2023-01-19T12:17:50;0.00;;;0.00;;
45806;SDS011;31507;51.494;7.518;2023-01-19T12:28:08;0.05;;;0.05;;
45806;SDS011;31507;51.494;7.518;2023-01-19T12:30:37;0.00;;;0.00;;
45806;SDS011;31507;51.494;7.518;2023-01-19T12:39:10;0.00;;;0.00;;
45806;SDS011;31507;51.494;7.518;2023-01-19T12:41:43;0.00;;;0.00;;
45806;SDS011;31507;51.494;7.518;2023-01-19T12:51:51;0.00;;;0.00;;
45806;SDS011;31507;51.494;7.518;2023-01-19T12:54:22;1.35;;;0.63;;
45806;SDS011;31507;51.494;7.518;2023-01-19T12:56:57;0.00;;;0.00;;
45806;SDS011;31507;51.494;7.518;2023-01-19T12:59:32;0.00;;;0.00;;
45806;SDS011;31507;51.494;7.518;2023-01-19T13:05:46;0.05;;;0.05;;
45806;SDS011;31507;51.494;7.518;2023-01-19T13:15:44;0.00;;;0.00;;
45806;SDS011;31507;51.494;7.518;2023-01-19T13:18:15;0.00;;;0.00;;
45806;SDS011;31507;51.494;7.518;2023-01-19T13:20:57;0.00;;;0.00;;
45806;SDS011;31507;51.494;7.518;2023-01-19T13:23:49;0.00;;;0.00;;
45806;SDS011;31507;51.494;7.518;2023-01-19T13:26:14;2.55;;;1.02;;
45806;SDS011;31507;51.494;7.518;2023-01-19T13:28:44;0.00;;;0.00;;
45806;SDS011;31507;51.494;7.518;2023-01-19T13:31:13;0.10;;;0.10;;
45806;SDS011;31507;51.494;7.518;2023-01-19T13:33:56;0.20;;;0.20;;
45806;SDS011;31507;51.494;7.518;2023-01-19T13:39:05;0.25;;;0.25;;
45806;SDS011;31507;51.494;7.518;2023-01-19T13:41:36;0.43;;;0.40;;
45806;SDS011;31507;51.494;7.518;2023-01-19T13:44:07;0.20;;;0.20;;
45806;SDS011;31507;51.494;7.518;2023-01-19T13:46:38;0.10;;;0.10;;
45806;SDS011;31507;51.494;7.518;2023-01-19T13:49:16;0.00;;;0.00;;
45806;SDS011;31507;51.494;7.518;2023-01-19T13:54:53;0.10;;;0.10;;
45806;SDS011;31507;51.494;7.518;2023-01-19T14:02:39;0.95;;;0.82;;
45806;SDS011;31507;51.494;7.518;2023-01-19T14:05:17;0.00;;;0.00;;
45806;SDS011;31507;51.494;7.518;2023-01-19T14:08:02;0.00;;;0.00;;
45806;SDS011;31507;51.494;7.518;2023-01-19T14:10:38;5.45;;;1.27;;
45806;SDS011;31507;51.494;7.518;2023-01-19T14:15:38;0.20;;;0.20;;
45806;SDS011;31507;51.494;7.518;2023-01-19T14:20:55;0.00;;;0.00;;
45806;SDS011;31507;51.494;7.518;2023-01-19T14:23:45;0.00;;;0.00;;
45806;SDS011;31507;51.494;7.518;2023-01-19T14:26:39;0.00;;;0.00;;
45806;SDS011;31507;51.494;7.518;2023-01-19T14:34:47;0.00;;;0.00;;
45806;SDS011;31507;51.494;7.518;2023-01-19T14:37:27;0.30;;;0.30;;
45806;SDS011;31507;51.494;7.518;2023-01-19T14:40:01;0.00;;;0.00;;
45806;SDS011;31507;51.494;7.518;2023-01-19T14:45:18;0.32;;;0.32;;
45806;SDS011;31507;51.494;7.518;2023-01-19T14:47:56;0.00;;;0.00;;
45806;SDS011;31507;51.494;7.518;2023-01-19T14:50:39;0.85;;;0.38;;
45806;SDS011;31507;51.494;7.518;2023-01-19T14:53:19;0.00;;;0.00;;
45806;SDS011;31507;51.494;7.518;2023-01-19T14:55:52;0.00;;;0.00;;
45806;SDS011;31507;51.494;7.518;2023-01-19T14:58:23;0.20;;;0.20;;
45806;SDS011;31507;51.494;7.518;2023-01-19T15:00:50;0.10;;;0.10;;
45806;SDS011;31507;51.494;7.518;2023-01-19T15:03:23;0.17;;;0.17;;
45806;SDS011;31507;51.494;7.518;2023-01-19T15:05:50;0.08;;;0.08;;
45806;SDS011;31507;51.494;7.518;2023-01-19T15:08:18;0.10;;;0.10;;
45806;SDS011;31507;51.494;7.518;2023-01-19T15:10:49;0.00;;;0.00;;
45806;SDS011;31507;51.494;7.518;2023-01-19T15:13:18;2.67;;;0.47;;
45806;SDS011;31507;51.494;7.518;2023-01-19T15:15:46;0.00;;;0.00;;
45806;SDS011;31507;51.494;7.518;2023-01-19T15:18:14;0.00;;;0.00;;
45806;SDS011;31507;51.494;7.518;2023-01-19T15:20:41;13.95;;;2.08;;
45806;SDS011;31507;51.494;7.518;2023-01-19T15:23:10;0.00;;;0.00;;
45806;SDS011;31507;51.494;7.518;2023-01-19T15:25:36;0.00;;;0.00;;
45806;SDS011;31507;51.494;7.518;2023-01-19T15:28:18;0.00;;;0.00;;
45806;SDS011;31507;51.494;7.518;2023-01-19T15:30:44;0.20;;;0.20;;
45806;SDS011;31507;51.494;7.518;2023-01-19T15:33:20;0.00;;;0.00;;
45806;SDS011;31507;51.494;7.518;2023-01-19T15:35:47;0.00;;;0.00;;
45806;SDS011;31507;51.494;7.518;2023-01-19T15:38:13;0.10;;;0.10;;
45806;SDS011;31507;51.494;7.518;2023-01-19T15:40:38;0.00;;;0.00;;
45806;SDS011;31507;51.494;7.518;2023-01-19T15:43:04;0.10;;;0.10;;
45806;SDS011;31507;51.494;7.518;2023-01-19T15:45:35;0.00;;;0.00;;
45806;SDS011;31507;51.494;7.518;2023-01-19T15:48:02;0.00;;;0.00;;
45806;SDS011;31507;51.494;7.518;2023-01-19T15:50:29;0.10;;;0.10;;
45806;SDS011;31507;51.494;7.518;2023-01-19T15:52:56;0.03;;;0.03;;
45806;SDS011;31507;51.494;7.518;2023-01-19T15:55:24;0.00;;;0.00;;
45806;SDS011;31507;51.494;7.518;2023-01-19T15:57:50;6.65;;;0.80;;
45806;SDS011;31507;51.494;7.518;2023-01-19T16:00:16;0.00;;;0.00;;
45806;SDS011;31507;51.494;7.518;2023-01-19T16:02:41;0.00;;;0.00;;
45806;SDS011;31507;51.494;7.518;2023-01-19T16:05:07;0.00;;;0.00;;
45806;SDS011;31507;51.494;7.518;2023-01-19T16:07:33;0.00;;;0.00;;
45806;SDS011;31507;51.494;7.518;2023-01-19T16:09:59;0.00;;;0.00;;
45806;SDS011;31507;51.494;7.518;2023-01-19T16:12:25;0.00;;;0.00;;
45806;SDS011;31507;51.494;7.518;2023-01-19T16:14:51;0.10;;;0.10;;
45806;SDS011;31507;51.494;7.518;2023-01-19T16:17:17;0.20;;;0.20;;
45806;SDS011;31507;51.494;7.518;2023-01-19T16:19:44;0.00;;;0.00;;
45806;SDS011;31507;51.494;7.518;2023-01-19T16:22:10;0.00;;;0.00;;
45806;SDS011;31507;51.494;7.518;2023-01-19T16:24:35;0.00;;;0.00;;
45806;SDS011;31507;51.494;7.518;2023-01-19T16:27:01;0.30;;;0.30;;
45806;SDS011;31507;51.494;7.518;2023-01-19T16:29:28;0.00;;;0.00;;
45806;SDS011;31507;51.494;7.518;2023-01-19T16:31:54;0.05;;;0.05;;
45806;SDS011;31507;51.494;7.518;2023-01-19T16:34:19;0.00;;;0.00;;
45806;SDS011;31507;51.494;7.518;2023-01-19T16:36:46;0.00;;;0.00;;
45806;SDS011;31507;51.494;7.518;2023-01-19T16:39:13;0.05;;;0.05;;
45806;SDS011;31507;51.494;7.518;2023-01-19T16:41:39;0.38;;;0.20;;
45806;SDS011;31507;51.494;7.518;2023-01-19T16:44:06;2.47;;;0.65;;
45806;SDS011;31507;51.494;7.518;2023-01-19T16:46:34;1.85;;;1.13;;
45806;SDS011;31507;51.494;7.518;2023-01-19T16:51:33;0.20;;;0.20;;
45806;SDS011;31507;51.494;7.518;2023-01-19T16:53:59;0.00;;;0.00;;
45806;SDS011;31507;51.494;7.518;2023-01-19T16:56:25;0.35;;;0.35;;
45806;SDS011;31507;51.494;7.518;2023-01-19T16:58:53;0.00;;;0.00;;
45806;SDS011;31507;51.494;7.518;2023-01-19T17:01:20;0.00;;;0.00;;
45806;SDS011;31507;51.494;7.518;2023-01-19T17:03:50;0.00;;;0.00;;
45806;SDS011;31507;51.494;7.518;2023-01-19T17:06:16;0.00;;;0.00;;